sensor_id;sensor_type;location;lat;lon;timestamp;pressure;altitude;pressure_sealevel;temperature;humidity
73558;BME280;61829;53.286;10.434;2023-03-16T00:02:11;101803.63;;;-2.15;100.00
73558;BME280;61829;53.286;10.434;2023-03-16T00:04:38;101795.72;;;-2.15;100.00
73558;BME280;61829;53.286;10.434;2023-03-16T00:07:08;101803.72;;;-2.17;100.00
73558;BME280;61829;53.286;10.434;2023-03-16T00:09:35;101799.28;;;-2.16;100.00
73558;BME280;61829;53.286;10.434;2023-03-16T00:12:12;101806.44;;;-2.18;100.00
73558;BME280;61829;53.286;10.434;2023-03-16T00:14:45;101802.16;;;-2.21;100.00
73558;BME280;61829;53.286;10.434;2023-03-16T00:17:13;101806.59;;;-2.21;100.00
73558;BME280;61829;53.286;10.434;2023-03-16T00:19:51;101804.03;;;-2.23;100.00
73558;BME280;61829;53.286;10.434;2023-03-16T00:22:24;101802.31;;;-2.24;100.00
73558;BME280;61829;53.286;10.434;2023-03-16T00:24:51;101813.88;;;-2.27;100.00
73558;BME280;61829;53.286;10.434;2023-03-16T00:27:21;101806.06;;;-2.28;100.00
73558;BME280;61829;53.286;10.434;2023-03-16T00:29:49;101810.50;;;-2.29;100.00
73558;BME280;61829;53.286;10.434;2023-03-16T00:32:23;101814.13;;;-2.31;100.00
73558;BME280;61829;53.286;10.434;2023-03-16T00:34:49;101808.91;;;-2.33;100.00
73558;BME280;61829;53.286;10.434;2023-03-16T00:37:17;101810.72;;;-2.33;100.00
73558;BME280;61829;53.286;10.434;2023-03-16T00:39:43;101812.56;;;-2.35;100.00
73558;BME280;61829;53.286;10.434;2023-03-16T00:42:11;101809.16;;;-2.37;100.00
73558;BME280;61829;53.286;10.434;2023-03-16T00:44:37;101812.72;;;-2.38;100.00
73558;BME280;61829;53.286;10.434;2023-03-16T00:47:04;101813.66;;;-2.39;100.00
73558;BME280;61829;53.286;10.434;2023-03-16T00:49:32;101814.59;;;-2.40;100.00
73558;BME280;61829;53.286;10.434;2023-03-16T00:52:03;101811.72;;;-2.36;100.00
73558;BME280;61829;53.286;10.434;2023-03-16T00:54:30;101816.94;;;-2.34;100.00
73558;BME280;61829;53.286;10.434;2023-03-16T00:57:00;101813.50;;;-2.36;100.00
73558;BME280;61829;53.286;10.434;2023-03-16T00:59:27;101814.44;;;-2.37;100.00
73558;BME280;61829;53.286;10.434;2023-03-16T01:01:54;101814.59;;;-2.40;100.00
73558;BME280;61829;53.286;10.434;2023-03-16T01:04:21;101816.22;;;-2.38;100.00
73558;BME280;61829;53.286;10.434;2023-03-16T01:06:47;101811.88;;;-2.39;100.00
73558;BME280;61829;53.286;10.434;2023-03-16T01:09:14;101814.59;;;-2.40;100.00
73558;BME280;61829;53.286;10.434;2023-03-16T01:11:40;101819.09;;;-2.42;100.00
73558;BME280;61829;53.286;10.434;2023-03-16T01:14:10;101816.47;;;-2.42;100.00
73558;BME280;61829;53.286;10.434;2023-03-16T01:16:36;101813.88;;;-2.44;100.00
73558;BME280;61829;53.286;10.434;2023-03-16T01:19:02;101806.91;;;-2.45;100.00
73558;BME280;61829;53.286;10.434;2023-03-16T01:21:27;101804.44;;;-2.48;100.00
73558;BME280;61829;53.286;10.434;2023-03-16T01:23:54;101808.00;;;-2.49;100.00
73558;BME280;61829;53.286;10.434;2023-03-16T01:26:21;101804.66;;;-2.53;100.00
73558;BME280;61829;53.286;10.434;2023-03-16T01:28:47;101800.38;;;-2.55;100.00
73558;BME280;61829;53.286;10.434;2023-03-16T01:31:14;101799.63;;;-2.57;100.00
73558;BME280;61829;53.286;10.434;2023-03-16T01:33:41;101792.69;;;-2.60;100.00
73558;BME280;61829;53.286;10.434;2023-03-16T01:36:12;101790.13;;;-2.61;100.00
73558;BME280;61829;53.286;10.434;2023-03-16T01:38:39;101790.13;;;-2.61;100.00
73558;BME280;61829;53.286;10.434;2023-03-16T01:41:05;101784.94;;;-2.63;100.00
73558;BME280;61829;53.286;10.434;2023-03-16T01:43:34;101791.97;;;-2.63;100.00
73558;BME280;61829;53.286;10.434;2023-03-16T01:51:25;101779.09;;;-2.69;100.00
73558;BME280;61829;53.286;10.434;2023-03-16T01:53:59;101782.72;;;-2.72;100.00
73558;BME280;61829;53.286;10.434;2023-03-16T01:56:33;101776.63;;;-2.73;100.00
73558;BME280;61829;53.286;10.434;2023-03-16T01:59:02;101780.19;;;-2.74;100.00
73558;BME280;61829;53.286;10.434;2023-03-16T02:01:30;101792.53;;;-2.74;100.00
73558;BME280;61829;53.286;10.434;2023-03-16T02:07:08;101776.84;;;-2.77;100.00
73558;BME280;61829;53.286;10.434;2023-03-16T02:09:38;101782.19;;;-2.79;100.00
73558;BME280;61829;53.286;10.434;2023-03-16T02:12:08;101774.28;;;-2.79;100.00
73558;BME280;61829;53.286;10.434;2023-03-16T02:14:48;101778.63;;;-2.78;100.00
73558;BME280;61829;53.286;10.434;2023-03-16T02:17:16;101783.13;;;-2.80;100.00
73558;BME280;61829;53.286;10.434;2023-03-16T02:19:46;101779.78;;;-2.83;100.00
73558;BME280;61829;53.286;10.434;2023-03-16T02:22:17;101768.22;;;-2.81;100.00
73558;BME280;61829;53.286;10.434;2023-03-16T02:24:44;101780.72;;;-2.84;100.00
73558;BME280;61829;53.286;10.434;2023-03-16T02:27:13;101775.53;;;-2.86;100.00
73558;BME280;61829;53.286;10.434;2023-03-16T02:32:10;101767.84;;;-2.90;100.00
73558;BME280;61829;53.286;10.434;2023-03-16T02:34:37;101773.16;;;-2.92;100.00
73558;BME280;61829;53.286;10.434;2023-03-16T02:37:03;101764.41;;;-2.92;100.00
73558;BME280;61829;53.286;10.434;2023-03-16T02:39:30;101765.41;;;-2.95;100.00
73558;BME280;61829;53.286;10.434;2023-03-16T02:41:56;101762.00;;;-2.97;100.00
73558;BME280;61829;53.286;10.434;2023-03-16T02:44:26;101762.00;;;-2.97;100.00
73558;BME280;61829;53.286;10.434;2023-03-16T02:46:55;101762.00;;;-2.97;100.00
73558;BME280;61829;53.286;10.434;2023-03-16T02:49:35;101769.13;;;-2.99;100.00
73558;BME280;61829;53.286;10.434;2023-03-16T02:52:04;101760.44;;;-3.01;100.00
73558;BME280;61829;53.286;10.434;2023-03-16T02:54:31;101764.84;;;-3.02;100.00
73558;BME280;61829;53.286;10.434;2023-03-16T02:56:56;101764.16;;;-3.05;100.00
73558;BME280;61829;53.286;10.434;2023-03-16T02:59:22;101762.28;;;-3.03;100.00
73558;BME280;61829;53.286;10.434;2023-03-16T03:01:48;101764.16;;;-3.05;100.00
73558;BME280;61829;53.286;10.434;2023-03-16T03:04:14;101754.53;;;-3.06;100.00
73558;BME280;61829;53.286;10.434;2023-03-16T03:06:41;101761.44;;;-3.04;100.00
73558;BME280;61829;53.286;10.434;2023-03-16T03:09:07;101764.84;;;-3.02;100.00
73558;BME280;61829;53.286;10.434;2023-03-16T03:11:36;101770.97;;;-3.01;100.00
73558;BME280;61829;53.286;10.434;2023-03-16T03:14:02;101775.47;;;-3.03;100.00
73558;BME280;61829;53.286;10.434;2023-03-16T03:16:28;101779.88;;;-3.04;100.00
73558;BME280;61829;53.286;10.434;2023-03-16T03:18:57;101772.84;;;-3.03;100.00
73558;BME280;61829;53.286;10.434;2023-03-16T03:21:22;101766.56;;;-3.01;100.00
73558;BME280;61829;53.286;10.434;2023-03-16T03:23:49;101773.63;;;-3.01;100.00
73558;BME280;61829;53.286;10.434;2023-03-16T03:26:15;101772.69;;;-3.00;100.00
73558;BME280;61829;53.286;10.434;2023-03-16T03:28:43;101776.19;;;-3.00;100.00
73558;BME280;61829;53.286;10.434;2023-03-16T03:31:18;101782.31;;;-2.99;100.00
73558;BME280;61829;53.286;10.434;2023-03-16T03:33:45;101784.09;;;-3.00;100.00
73558;BME280;61829;53.286;10.434;2023-03-16T03:36:11;101786.75;;;-3.00;100.00
73558;BME280;61829;53.286;10.434;2023-03-16T03:38:38;101780.53;;;-2.99;100.00
73558;BME280;61829;53.286;10.434;2023-03-16T03:41:04;101782.22;;;-2.98;100.00
73558;BME280;61829;53.286;10.434;2023-03-16T03:43:34;101778.59;;;-2.95;99.88
73558;BME280;61829;53.286;10.434;2023-03-16T03:46:01;101775.09;;;-2.96;99.68
73558;BME280;61829;53.286;10.434;2023-03-16T03:48:27;101777.69;;;-2.94;100.00
73558;BME280;61829;53.286;10.434;2023-03-16T03:50:53;101782.97;;;-2.94;99.98
73558;BME280;61829;53.286;10.434;2023-03-16T03:53:20;101790.88;;;-2.94;99.51
73558;BME280;61829;53.286;10.434;2023-03-16T03:55:46;101789.13;;;-2.95;99.71
73558;BME280;61829;53.286;10.434;2023-03-16T03:58:14;101788.38;;;-2.97;99.77
73558;BME280;61829;53.286;10.434;2023-03-16T04:00:41;101781.38;;;-2.98;99.05
73558;BME280;61829;53.286;10.434;2023-03-16T04:03:07;101786.66;;;-2.98;99.54
73558;BME280;61829;53.286;10.434;2023-03-16T04:05:33;101785.75;;;-2.97;99.33
73558;BME280;61829;53.286;10.434;2023-03-16T04:08:23;101790.94;;;-2.96;99.24
73558;BME280;61829;53.286;10.434;2023-03-16T04:10:49;101790.13;;;-2.98;99.09
73558;BME280;61829;53.286;10.434;2023-03-16T04:13:16;101783.09;;;-2.97;99.33
73558;BME280;61829;53.286;10.434;2023-03-16T04:15:42;101790.94;;;-2.96;99.24
73558;BME280;61829;53.286;10.434;2023-03-16T04:18:11;101790.94;;;-2.96;99.11
73558;BME280;61829;53.286;10.434;2023-03-16T04:20:37;101783.09;;;-2.97;99.08
73558;BME280;61829;53.286;10.434;2023-03-16T04:23:03;101791.88;;;-2.97;99.07
73558;BME280;61829;53.286;10.434;2023-03-16T04:25:29;101784.00;;;-2.98;98.89
73558;BME280;61829;53.286;10.434;2023-03-16T04:27:55;101790.00;;;-2.95;99.42
73558;BME280;61829;53.286;10.434;2023-03-16T04:30:21;101782.06;;;-2.95;99.42
73558;BME280;61829;53.286;10.434;2023-03-16T04:32:52;101779.31;;;-2.91;99.31
73558;BME280;61829;53.286;10.434;2023-03-16T04:35:18;101779.22;;;-2.90;99.51
73558;BME280;61829;53.286;10.434;2023-03-16T04:37:44;101786.19;;;-2.89;99.17
73558;BME280;61829;53.286;10.434;2023-03-16T04:40:10;101779.22;;;-2.90;99.00
73558;BME280;61829;53.286;10.434;2023-03-16T04:42:43;101778.28;;;-2.89;99.17
73558;BME280;61829;53.286;10.434;2023-03-16T04:45:09;101773.94;;;-2.90;99.13
73558;BME280;61829;53.286;10.434;2023-03-16T04:47:37;101781.97;;;-2.91;98.89
73558;BME280;61829;53.286;10.434;2023-03-16T04:50:03;101784.66;;;-2.93;98.85
73558;BME280;61829;53.286;10.434;2023-03-16T04:52:30;101774.09;;;-2.93;99.02
73558;BME280;61829;53.286;10.434;2023-03-16T04:54:57;101776.69;;;-2.91;98.92
73558;BME280;61829;53.286;10.434;2023-03-16T04:57:23;101781.06;;;-2.92;99.20
73558;BME280;61829;53.286;10.434;2023-03-16T04:59:49;101783.72;;;-2.92;98.89
73558;BME280;61829;53.286;10.434;2023-03-16T05:02:15;101784.59;;;-2.91;98.80
73558;BME280;61829;53.286;10.434;2023-03-16T05:04:44;101787.13;;;-2.90;98.97
73558;BME280;61829;53.286;10.434;2023-03-16T05:07:10;101784.34;;;-2.87;99.03
73558;BME280;61829;53.286;10.434;2023-03-16T05:09:36;101785.97;;;-2.84;98.57
73558;BME280;61829;53.286;10.434;2023-03-16T05:12:02;101788.72;;;-2.86;98.88
73558;BME280;61829;53.286;10.434;2023-03-16T05:14:27;101788.63;;;-2.84;98.57
73558;BME280;61829;53.286;10.434;2023-03-16T05:16:54;101783.28;;;-2.83;98.77
73558;BME280;61829;53.286;10.434;2023-03-16T05:19:19;101785.94;;;-2.83;98.45
73558;BME280;61829;53.286;10.434;2023-03-16T05:21:45;101782.34;;;-2.82;98.68
73558;BME280;61829;53.286;10.434;2023-03-16T05:24:11;101778.72;;;-2.79;97.91
73558;BME280;61829;53.286;10.434;2023-03-16T05:26:37;101771.66;;;-2.79;97.87
73558;BME280;61829;53.286;10.434;2023-03-16T05:29:03;101769.84;;;-2.78;97.79
73558;BME280;61829;53.286;10.434;2023-03-16T05:31:30;101767.91;;;-2.75;97.82
73558;BME280;61829;53.286;10.434;2023-03-16T05:34:01;101766.06;;;-2.73;97.52
73558;BME280;61829;53.286;10.434;2023-03-16T05:36:30;101769.38;;;-2.69;97.64
73558;BME280;61829;53.286;10.434;2023-03-16T05:38:56;101773.59;;;-2.65;97.69
73558;BME280;61829;53.286;10.434;2023-03-16T05:41:23;101775.28;;;-2.64;97.90
73558;BME280;61829;53.286;10.434;2023-03-16T05:43:49;101774.22;;;-2.60;97.65
73558;BME280;61829;53.286;10.434;2023-03-16T05:46:15;101765.38;;;-2.59;97.27
73558;BME280;61829;53.286;10.434;2023-03-16T05:48:41;101767.78;;;-2.54;97.17
73558;BME280;61829;53.286;10.434;2023-03-16T05:51:07;101775.47;;;-2.50;97.31
73558;BME280;61829;53.286;10.434;2023-03-16T05:53:33;101775.41;;;-2.48;97.26
73558;BME280;61829;53.286;10.434;2023-03-16T05:56:00;101783.31;;;-2.48;97.13
73558;BME280;61829;53.286;10.434;2023-03-16T05:58:26;101783.16;;;-2.45;96.90
73558;BME280;61829;53.286;10.434;2023-03-16T06:00:52;101788.38;;;-2.43;97.52
73558;BME280;61829;53.286;10.434;2023-03-16T06:03:20;101793.41;;;-2.39;97.32
73558;BME280;61829;53.286;10.434;2023-03-16T06:05:47;101790.44;;;-2.33;97.01
73558;BME280;61829;53.286;10.434;2023-03-16T06:08:13;101795.41;;;-2.27;97.24
73558;BME280;61829;53.286;10.434;2023-03-16T06:10:40;101791.53;;;-2.19;96.98
73558;BME280;61829;53.286;10.434;2023-03-16T06:13:05;101796.31;;;-2.10;96.41
73558;BME280;61829;53.286;10.434;2023-03-16T06:15:31;101795.00;;;-2.01;96.96
73558;BME280;61829;53.286;10.434;2023-03-16T06:17:57;101793.50;;;-1.90;97.25
73558;BME280;61829;53.286;10.434;2023-03-16T06:20:23;101789.44;;;-1.79;97.10
73558;BME280;61829;53.286;10.434;2023-03-16T06:22:49;101792.19;;;-1.65;96.92
73558;BME280;61829;53.286;10.434;2023-03-16T06:25:15;101794.09;;;-1.51;96.44
73558;BME280;61829;53.286;10.434;2023-03-16T06:27:41;101791.66;;;-1.39;96.58
73558;BME280;61829;53.286;10.434;2023-03-16T06:30:11;101802.34;;;-1.24;96.23
73558;BME280;61829;53.286;10.434;2023-03-16T06:32:37;101789.25;;;-1.11;95.45
73558;BME280;61829;53.286;10.434;2023-03-16T06:35:07;101790.19;;;-0.97;95.24
73558;BME280;61829;53.286;10.434;2023-03-16T06:37:33;101795.28;;;-0.78;94.27
73558;BME280;61829;53.286;10.434;2023-03-16T06:40:00;101794.41;;;-0.62;94.11
73558;BME280;61829;53.286;10.434;2023-03-16T06:42:27;101798.16;;;-0.51;92.91
73558;BME280;61829;53.286;10.434;2023-03-16T06:44:52;101800.84;;;-0.36;91.89
73558;BME280;61829;53.286;10.434;2023-03-16T06:47:18;101805.34;;;-0.22;91.65
73558;BME280;61829;53.286;10.434;2023-03-16T06:49:44;101801.38;;;-0.01;91.40
73558;BME280;61829;53.286;10.434;2023-03-16T06:52:12;101816.66;;;0.24;91.59
73558;BME280;61829;53.286;10.434;2023-03-16T06:54:39;101809.66;;;0.52;90.67
73558;BME280;61829;53.286;10.434;2023-03-16T06:57:06;101814.28;;;0.77;89.48
73558;BME280;61829;53.286;10.434;2023-03-16T06:59:32;101818.50;;;0.94;86.97
73558;BME280;61829;53.286;10.434;2023-03-16T07:01:58;101812.13;;;1.10;86.54
73558;BME280;61829;53.286;10.434;2023-03-16T07:04:24;101820.69;;;1.28;85.86
73558;BME280;61829;53.286;10.434;2023-03-16T07:06:50;101817.69;;;1.47;84.79
73558;BME280;61829;53.286;10.434;2023-03-16T07:09:16;101821.84;;;1.64;83.61
73558;BME280;61829;53.286;10.434;2023-03-16T07:11:41;101816.06;;;1.85;83.62
73558;BME280;61829;53.286;10.434;2023-03-16T07:14:07;101828.06;;;2.03;82.63
73558;BME280;61829;53.286;10.434;2023-03-16T07:16:33;101821.06;;;2.15;80.44
73558;BME280;61829;53.286;10.434;2023-03-16T07:18:59;101830.56;;;2.19;80.19
73558;BME280;61829;53.286;10.434;2023-03-16T07:21:25;101830.75;;;2.29;80.56
73558;BME280;61829;53.286;10.434;2023-03-16T07:23:51;101826.50;;;2.39;79.25
73558;BME280;61829;53.286;10.434;2023-03-16T07:26:16;101837.25;;;2.50;78.79
73558;BME280;61829;53.286;10.434;2023-03-16T07:28:42;101832.78;;;2.63;78.50
73558;BME280;61829;53.286;10.434;2023-03-16T07:31:10;101827.81;;;2.83;77.56
73558;BME280;61829;53.286;10.434;2023-03-16T07:33:37;101831.81;;;3.01;76.36
73558;BME280;61829;53.286;10.434;2023-03-16T07:36:03;101835.94;;;3.18;74.34
73558;BME280;61829;53.286;10.434;2023-03-16T07:38:31;101830.09;;;3.37;73.60
73558;BME280;61829;53.286;10.434;2023-03-16T07:41:00;101836.38;;;3.60;74.06
73558;BME280;61829;53.286;10.434;2023-03-16T07:43:28;101843.41;;;3.85;72.51
73558;BME280;61829;53.286;10.434;2023-03-16T07:45:54;101834.72;;;4.05;71.10
73558;BME280;61829;53.286;10.434;2023-03-16T07:48:20;101840.47;;;4.35;71.15
73558;BME280;61829;53.286;10.434;2023-03-16T07:50:46;101838.78;;;4.56;68.96
73558;BME280;61829;53.286;10.434;2023-03-16T07:53:15;101828.34;;;4.76;69.23
73558;BME280;61829;53.286;10.434;2023-03-16T07:55:42;101825.78;;;4.85;66.04
73558;BME280;61829;53.286;10.434;2023-03-16T07:58:11;101824.19;;;5.05;66.69
73558;BME280;61829;53.286;10.434;2023-03-16T08:00:37;101834.97;;;5.15;63.92
73558;BME280;61829;53.286;10.434;2023-03-16T08:03:04;101830.09;;;5.20;64.72
73558;BME280;61829;53.286;10.434;2023-03-16T08:05:30;101829.91;;;5.44;64.20
73558;BME280;61829;53.286;10.434;2023-03-16T08:08:00;101826.81;;;5.60;63.23
73558;BME280;61829;53.286;10.434;2023-03-16T08:10:26;101831.00;;;5.74;61.68
73558;BME280;61829;53.286;10.434;2023-03-16T08:12:53;101827.63;;;5.93;62.15
73558;BME280;61829;53.286;10.434;2023-03-16T08:15:18;101834.53;;;6.06;61.31
73558;BME280;61829;53.286;10.434;2023-03-16T08:17:44;101828.00;;;6.20;61.46
73558;BME280;61829;53.286;10.434;2023-03-16T08:20:11;101832.59;;;6.39;60.61
73558;BME280;61829;53.286;10.434;2023-03-16T08:22:41;101832.22;;;6.53;60.53
73558;BME280;61829;53.286;10.434;2023-03-16T08:25:07;101837.03;;;6.50;58.84
73558;BME280;61829;53.286;10.434;2023-03-16T08:27:37;101833.84;;;6.35;59.73
73558;BME280;61829;53.286;10.434;2023-03-16T08:30:05;101834.75;;;6.24;59.06
73558;BME280;61829;53.286;10.434;2023-03-16T08:32:32;101838.44;;;6.23;60.22
73558;BME280;61829;53.286;10.434;2023-03-16T08:34:58;101838.22;;;6.36;59.82
73558;BME280;61829;53.286;10.434;2023-03-16T08:37:25;101844.75;;;6.43;59.10
73558;BME280;61829;53.286;10.434;2023-03-16T08:39:52;101849.84;;;6.46;59.19
73558;BME280;61829;53.286;10.434;2023-03-16T08:42:19;101846.31;;;6.46;58.67
73558;BME280;61829;53.286;10.434;2023-03-16T08:44:46;101842.25;;;6.51;58.93
73558;BME280;61829;53.286;10.434;2023-03-16T08:47:12;101843.81;;;6.54;58.09
73558;BME280;61829;53.286;10.434;2023-03-16T08:49:38;101847.09;;;6.67;57.84
73558;BME280;61829;53.286;10.434;2023-03-16T08:52:04;101840.53;;;6.81;59.41
73558;BME280;61829;53.286;10.434;2023-03-16T08:54:30;101841.31;;;7.03;59.25
73558;BME280;61829;53.286;10.434;2023-03-16T08:56:59;101836.41;;;7.08;56.35
73558;BME280;61829;53.286;10.434;2023-03-16T08:59:25;101841.03;;;7.06;57.15
73558;BME280;61829;53.286;10.434;2023-03-16T09:01:51;101838.81;;;7.11;56.37
73558;BME280;61829;53.286;10.434;2023-03-16T09:04:17;101838.81;;;7.11;56.84
73558;BME280;61829;53.286;10.434;2023-03-16T09:06:44;101840.22;;;7.15;56.38
73558;BME280;61829;53.286;10.434;2023-03-16T09:09:10;101837.00;;;7.31;57.09
73558;BME280;61829;53.286;10.434;2023-03-16T09:11:36;101824.59;;;7.49;56.56
73558;BME280;61829;53.286;10.434;2023-03-16T09:14:02;101829.00;;;7.60;56.44
73558;BME280;61829;53.286;10.434;2023-03-16T09:16:29;101824.91;;;7.56;56.08
73558;BME280;61829;53.286;10.434;2023-03-16T09:18:55;101822.94;;;7.68;55.83
73558;BME280;61829;53.286;10.434;2023-03-16T09:21:21;101828.41;;;7.85;54.73
73558;BME280;61829;53.286;10.434;2023-03-16T09:23:47;101825.84;;;7.84;54.03
73558;BME280;61829;53.286;10.434;2023-03-16T09:26:13;101824.88;;;7.95;54.26
73558;BME280;61829;53.286;10.434;2023-03-16T09:28:40;101821.59;;;8.01;52.86
73558;BME280;61829;53.286;10.434;2023-03-16T09:31:16;101821.75;;;8.09;51.96
73558;BME280;61829;53.286;10.434;2023-03-16T09:33:42;101810.03;;;8.00;53.27
73558;BME280;61829;53.286;10.434;2023-03-16T09:36:09;101805.25;;;8.04;53.47
73558;BME280;61829;53.286;10.434;2023-03-16T09:38:39;101807.19;;;8.12;52.56
73558;BME280;61829;53.286;10.434;2023-03-16T09:46:36;101799.50;;;8.26;50.77
73558;BME280;61829;53.286;10.434;2023-03-16T09:49:11;101799.25;;;8.20;51.58
73558;BME280;61829;53.286;10.434;2023-03-16T09:54:38;101786.06;;;8.36;50.65
73558;BME280;61829;53.286;10.434;2023-03-16T09:57:26;101775.75;;;8.41;49.04
73558;BME280;61829;53.286;10.434;2023-03-16T10:06:03;101777.56;;;8.78;46.61
73558;BME280;61829;53.286;10.434;2023-03-16T10:08:44;101791.31;;;8.75;47.45
73558;BME280;61829;53.286;10.434;2023-03-16T10:11:45;101777.75;;;8.94;47.71
73558;BME280;61829;53.286;10.434;2023-03-16T10:14:47;101772.84;;;9.08;46.99
73558;BME280;61829;53.286;10.434;2023-03-16T10:17:16;101766.88;;;9.14;45.29
73558;BME280;61829;53.286;10.434;2023-03-16T10:19:49;101770.13;;;9.17;43.93
73558;BME280;61829;53.286;10.434;2023-03-16T10:22:25;101769.56;;;9.14;41.60
73558;BME280;61829;53.286;10.434;2023-03-16T10:27:43;101776.03;;;9.21;42.54
73558;BME280;61829;53.286;10.434;2023-03-16T10:32:45;101763.63;;;9.28;39.96
73558;BME280;61829;53.286;10.434;2023-03-16T10:35:33;101767.81;;;9.40;39.60
73558;BME280;61829;53.286;10.434;2023-03-16T10:38:02;101763.28;;;9.41;40.71
73558;BME280;61829;53.286;10.434;2023-03-16T10:40:35;101760.13;;;9.46;40.37
73558;BME280;61829;53.286;10.434;2023-03-16T10:43:05;101764.72;;;9.53;41.89
73558;BME280;61829;53.286;10.434;2023-03-16T10:45:34;101761.66;;;9.66;41.72
73558;BME280;61829;53.286;10.434;2023-03-16T10:48:13;101754.94;;;9.70;41.64
73558;BME280;61829;53.286;10.434;2023-03-16T10:50:42;101762.69;;;9.73;42.16
73558;BME280;61829;53.286;10.434;2023-03-16T10:53:27;101749.94;;;9.75;41.47
73558;BME280;61829;53.286;10.434;2023-03-16T10:55:59;101759.22;;;9.81;38.76
73558;BME280;61829;53.286;10.434;2023-03-16T10:58:30;101744.75;;;9.82;39.15
73558;BME280;61829;53.286;10.434;2023-03-16T11:00:58;101755.53;;;9.82;37.10
73558;BME280;61829;53.286;10.434;2023-03-16T11:03:25;101744.22;;;9.78;38.29
73558;BME280;61829;53.286;10.434;2023-03-16T11:05:59;101742.66;;;9.94;38.96
73558;BME280;61829;53.286;10.434;2023-03-16T11:08:30;101744.81;;;9.90;37.06
73558;BME280;61829;53.286;10.434;2023-03-16T11:10:59;101736.66;;;10.00;35.62
73558;BME280;61829;53.286;10.434;2023-03-16T11:13:32;101720.50;;;10.00;33.41
73558;BME280;61829;53.286;10.434;2023-03-16T11:16:05;101716.59;;;9.94;31.88
73558;BME280;61829;53.286;10.434;2023-03-16T11:18:47;101724.59;;;9.86;30.16
73558;BME280;61829;53.286;10.434;2023-03-16T11:23:54;101720.81;;;9.97;32.29
73558;BME280;61829;53.286;10.434;2023-03-16T11:26:31;101708.09;;;10.15;32.12
73558;BME280;61829;53.286;10.434;2023-03-16T11:29:08;101706.16;;;10.25;32.98
73558;BME280;61829;53.286;10.434;2023-03-16T11:31:56;101705.06;;;10.36;34.79
73558;BME280;61829;53.286;10.434;2023-03-16T11:34:27;101706.13;;;10.51;34.64
73558;BME280;61829;53.286;10.434;2023-03-16T11:37:19;101691.00;;;10.67;34.05
73558;BME280;61829;53.286;10.434;2023-03-16T11:40:29;101687.63;;;10.65;31.48
73558;BME280;61829;53.286;10.434;2023-03-16T11:51:34;101688.72;;;10.38;30.53
73558;BME280;61829;53.286;10.434;2023-03-16T11:54:58;101688.94;;;10.52;30.20
73558;BME280;61829;53.286;10.434;2023-03-16T12:06:24;101670.84;;;10.87;28.98
73558;BME280;61829;53.286;10.434;2023-03-16T12:11:26;101667.97;;;10.97;31.24
73558;BME280;61829;53.286;10.434;2023-03-16T12:16:55;101651.09;;;10.87;30.59
73558;BME280;61829;53.286;10.434;2023-03-16T12:19:48;101637.81;;;10.85;29.78
73558;BME280;61829;53.286;10.434;2023-03-16T12:22:25;101641.84;;;10.89;29.45
73558;BME280;61829;53.286;10.434;2023-03-16T12:24:52;101643.84;;;10.95;29.09
73558;BME280;61829;53.286;10.434;2023-03-16T12:27:34;101634.94;;;10.95;30.00
73558;BME280;61829;53.286;10.434;2023-03-16T12:33:05;101641.50;;;10.92;29.45
73558;BME280;61829;53.286;10.434;2023-03-16T12:43:39;101619.94;;;11.09;30.08
73558;BME280;61829;53.286;10.434;2023-03-16T12:46:12;101626.84;;;11.11;28.81
73558;BME280;61829;53.286;10.434;2023-03-16T12:48:46;101628.72;;;11.11;29.86
73558;BME280;61829;53.286;10.434;2023-03-16T12:51:13;101607.31;;;10.85;29.93
73558;BME280;61829;53.286;10.434;2023-03-16T12:56:31;101603.59;;;11.10;29.68
73558;BME280;61829;53.286;10.434;2023-03-16T12:59:01;101590.13;;;11.10;30.59
73558;BME280;61829;53.286;10.434;2023-03-16T13:01:40;101594.00;;;10.99;28.24
73558;BME280;61829;53.286;10.434;2023-03-16T13:06:48;101572.91;;;10.95;28.76
73558;BME280;61829;53.286;10.434;2023-03-16T13:09:19;101578.84;;;10.98;30.13
73558;BME280;61829;53.286;10.434;2023-03-16T13:11:47;101580.00;;;10.96;28.42
73558;BME280;61829;53.286;10.434;2023-03-16T13:14:40;101573.75;;;11.04;29.15
73558;BME280;61829;53.286;10.434;2023-03-16T13:19:43;101583.00;;;11.09;30.49
73558;BME280;61829;53.286;10.434;2023-03-16T13:22:45;101570.41;;;11.10;28.85
73558;BME280;61829;53.286;10.434;2023-03-16T13:25:21;101568.53;;;10.94;27.86
73558;BME280;61829;53.286;10.434;2023-03-16T13:27:51;101572.41;;;10.83;28.68
73558;BME280;61829;53.286;10.434;2023-03-16T13:30:24;101575.59;;;10.87;29.58
73558;BME280;61829;53.286;10.434;2023-03-16T13:33:19;101550.84;;;10.91;29.30
73558;BME280;61829;53.286;10.434;2023-03-16T13:35:48;101548.31;;;10.82;28.96
73558;BME280;61829;53.286;10.434;2023-03-16T13:38:15;101545.97;;;10.62;28.03
73558;BME280;61829;53.286;10.434;2023-03-16T13:40:48;101547.47;;;10.56;29.61
73558;BME280;61829;53.286;10.434;2023-03-16T13:43:28;101545.75;;;10.55;30.06
73558;BME280;61829;53.286;10.434;2023-03-16T13:45:56;101545.94;;;10.54;28.43
73558;BME280;61829;53.286;10.434;2023-03-16T13:48:23;101543.75;;;10.49;28.06
73558;BME280;61829;53.286;10.434;2023-03-16T13:50:54;101540.72;;;10.36;28.44
73558;BME280;61829;53.286;10.434;2023-03-16T13:53:30;101539.81;;;10.27;29.17
73558;BME280;61829;53.286;10.434;2023-03-16T13:55:59;101533.88;;;10.16;28.37
73558;BME280;61829;53.286;10.434;2023-03-16T13:58:32;101530.66;;;10.04;28.10
73558;BME280;61829;53.286;10.434;2023-03-16T14:01:04;101531.81;;;10.01;31.35
73558;BME280;61829;53.286;10.434;2023-03-16T14:03:33;101542.75;;;9.92;29.20
73558;BME280;61829;53.286;10.434;2023-03-16T14:05:59;101522.03;;;9.84;28.50
73558;BME280;61829;53.286;10.434;2023-03-16T14:08:26;101519.94;;;9.70;30.56